Time;durP1;ratioP1;P1;durP2;ratioP2;P2;SDS_P1;SDS_P2;PMS_P1;PMS_P2;Temp;Humidity;BMP_temperature;BMP_pressure;BME280_temperature;BME280_humidity;BME280_pressure;Samples;Min_cycle;Max_cycle;Signal;HPM_P1;HPM_P2
2024/02/14 00:00:28;;;;;;;1.88;1.42;;;20.80;71.10;;;;;;4995882;28;20211;-75
2024/02/14 00:02:54;;;;;;;2.95;1.30;;;20.90;71.10;;;;;;4999735;28;20664;-76
2024/02/14 00:05:29;;;;;;;1.73;1.13;;;20.80;71.10;;;;;;4996970;28;20204;-72
2024/02/14 00:08:00;;;;;;;1.20;0.90;;;20.70;71.00;;;;;;4985524;28;20330;-75
2024/02/14 00:10:28;;;;;;;1.38;1.05;;;20.80;71.50;;;;;;4993775;28;20622;-77
2024/02/14 00:12:55;;;;;;;1.65;1.10;;;20.60;70.90;;;;;;4995725;28;20443;-75
2024/02/14 00:15:27;;;;;;;1.10;0.90;;;20.80;71.30;;;;;;5000940;28;20204;-76
2024/02/14 00:17:54;;;;;;;1.73;1.15;;;20.80;71.40;;;;;;5001486;28;20199;-72
2024/02/14 00:20:25;;;;;;;1.30;1.02;;;20.60;71.00;;;;;;4999898;28;21032;-75
2024/02/14 00:22:51;;;;;;;2.67;1.30;;;20.80;71.20;;;;;;5000952;28;20252;-75
2024/02/14 00:25:18;;;;;;;1.52;1.15;;;20.80;72.20;;;;;;5001109;28;20204;-75
2024/02/14 00:27:45;;;;;;;1.73;1.20;;;20.70;71.30;;;;;;5002678;28;20211;-74
2024/02/14 00:30:12;;;;;;;1.20;1.05;;;20.80;71.40;;;;;;4996267;28;20219;-71
2024/02/14 00:32:44;;;;;;;2.28;1.35;;;20.70;71.40;;;;;;4987383;28;20223;-75
2024/02/14 00:35:14;;;;;;;1.83;0.98;;;20.70;71.40;;;;;;4996219;28;20515;-76
2024/02/14 00:37:44;;;;;;;1.20;1.10;;;20.80;71.30;;;;;;4997858;28;20617;-76
2024/02/14 00:40:16;;;;;;;1.20;1.00;;;21.00;71.70;;;;;;4999344;28;20216;-75
2024/02/14 00:42:45;;;;;;;2.00;1.10;;;20.70;71.10;;;;;;5004749;28;20299;-73
2024/02/14 00:45:14;;;;;;;1.50;0.90;;;20.70;71.40;;;;;;4991277;28;20191;-72
2024/02/14 00:47:41;;;;;;;2.30;1.20;;;20.70;71.60;;;;;;4997879;28;20241;-76
2024/02/14 00:50:09;;;;;;;1.40;1.30;;;20.70;71.30;;;;;;4969530;28;20525;-78
2024/02/14 00:52:35;;;;;;;2.28;1.10;;;20.70;71.70;;;;;;4990219;28;20720;-77
2024/02/14 00:55:04;;;;;;;1.60;1.00;;;20.50;71.10;;;;;;4992420;28;20207;-74
2024/02/14 00:57:31;;;;;;;1.38;1.00;;;20.70;71.20;;;;;;4979159;28;20200;-73
2024/02/14 00:59:58;;;;;;;1.38;1.17;;;20.60;71.30;;;;;;4971941;28;21022;-73
2024/02/14 01:02:26;;;;;;;1.55;1.15;;;20.50;71.10;;;;;;4979301;28;20677;-76
2024/02/14 01:04:52;;;;;;;1.70;1.20;;;20.60;71.40;;;;;;4944294;28;20196;-71
2024/02/14 01:07:21;;;;;;;1.95;1.42;;;20.60;71.40;;;;;;4971310;28;20200;-71
2024/02/14 01:09:50;;;;;;;2.13;1.30;;;20.90;71.90;;;;;;4978613;28;20208;-71
2024/02/14 01:12:19;;;;;;;2.15;1.33;;;20.70;71.60;;;;;;4978926;28;20446;-72
2024/02/14 01:14:50;;;;;;;1.30;1.00;;;20.40;71.30;;;;;;4984013;28;20914;-70
2024/02/14 01:17:21;;;;;;;1.15;1.00;;;20.80;71.70;;;;;;4986230;28;20607;-70
2024/02/14 01:19:50;;;;;;;3.95;1.30;;;20.60;71.40;;;;;;4990069;28;20199;-72
2024/02/14 01:22:17;;;;;;;1.13;1.00;;;20.60;71.30;;;;;;4992168;28;20339;-70
2024/02/14 01:24:46;;;;;;;4.05;1.50;;;20.60;71.30;;;;;;4993049;28;20647;-71
2024/02/14 01:27:14;;;;;;;1.40;1.08;;;20.60;71.90;;;;;;4987192;28;20200;-72
2024/02/14 01:29:45;;;;;;;1.40;0.90;;;20.60;71.20;;;;;;4992535;28;20207;-70
2024/02/14 01:32:18;;;;;;;2.40;1.10;;;20.60;71.20;;;;;;4995261;28;20208;-69
2024/02/14 01:34:45;;;;;;;2.20;1.30;;;20.60;71.40;;;;;;4982666;28;20229;-69
2024/02/14 01:37:12;;;;;;;1.75;1.38;;;20.60;71.40;;;;;;4996280;28;20680;-72
2024/02/14 01:39:41;;;;;;;3.05;1.30;;;20.50;71.20;;;;;;4999908;28;20211;-72
2024/02/14 01:42:09;;;;;;;2.60;1.58;;;20.50;71.20;;;;;;4997578;28;20243;-73
2024/02/14 01:44:36;;;;;;;1.20;0.80;;;20.60;71.30;;;;;;4999652;28;20197;-72
2024/02/14 01:47:06;;;;;;;1.60;1.00;;;20.50;71.10;;;;;;4996566;28;20344;-71
2024/02/14 01:49:33;;;;;;;3.47;1.27;;;20.50;71.10;;;;;;4987663;28;20688;-69
2024/02/14 01:52:06;;;;;;;3.03;1.60;;;20.30;70.90;;;;;;4996851;28;20692;-73
2024/02/14 01:54:34;;;;;;;1.70;1.10;;;20.50;70.90;;;;;;4996248;28;20192;-70
2024/02/14 01:57:08;;;;;;;1.50;1.20;;;20.50;71.00;;;;;;4998202;28;20196;-71
2024/02/14 01:59:37;;;;;;;1.70;1.30;;;20.50;70.90;;;;;;4994005;28;20221;-70
2024/02/14 02:02:08;;;;;;;1.20;0.98;;;20.50;71.90;;;;;;4983342;28;20210;-69
2024/02/14 02:04:35;;;;;;;2.47;1.25;;;20.50;71.10;;;;;;4995447;28;20204;-71
2024/02/14 02:07:10;;;;;;;2.38;1.50;;;20.30;70.90;;;;;;5000408;28;20564;-71
2024/02/14 02:09:37;;;;;;;2.03;0.93;;;20.40;71.10;;;;;;4997526;28;20205;-72
2024/02/14 02:12:07;;;;;;;1.67;1.10;;;20.20;70.80;;;;;;4990782;28;20648;-73
2024/02/14 02:14:34;;;;;;;2.25;1.20;;;20.50;71.20;;;;;;4998289;28;20793;-71
2024/02/14 02:17:07;;;;;;;1.45;0.85;;;20.40;71.00;;;;;;4998693;28;20306;-72
2024/02/14 02:19:37;;;;;;;2.97;1.55;;;20.40;71.00;;;;;;4992731;28;21929;-72
2024/02/14 02:22:05;;;;;;;1.98;0.95;;;20.40;70.90;;;;;;4997378;28;20418;-72
2024/02/14 02:24:34;;;;;;;2.25;1.08;;;20.90;71.60;;;;;;4996903;28;20231;-73
2024/02/14 02:27:06;;;;;;;1.73;1.02;;;20.40;71.00;;;;;;4997004;28;20667;-68
2024/02/14 02:29:37;;;;;;;1.30;0.90;;;20.20;71.00;;;;;;4985635;28;20710;-71
2024/02/14 02:32:09;;;;;;;1.85;1.17;;;20.40;70.90;;;;;;4981353;28;20200;-73
2024/02/14 02:34:38;;;;;;;2.03;1.00;;;20.40;71.10;;;;;;4986329;28;20227;-71
2024/02/14 02:37:10;;;;;;;2.75;0.93;;;20.40;71.20;;;;;;4989044;28;20738;-70
2024/02/14 02:39:41;;;;;;;1.50;1.00;;;20.40;71.20;;;;;;4965928;28;20265;-69
2024/02/14 02:42:10;;;;;;;1.58;1.30;;;20.20;70.90;;;;;;4982110;28;20697;-69
2024/02/14 02:44:40;;;;;;;2.67;1.10;;;20.10;70.70;;;;;;4993934;28;20294;-70
2024/02/14 02:47:10;;;;;;;1.83;1.20;;;20.40;71.10;;;;;;4997177;28;20196;-68
2024/02/14 02:49:42;;;;;;;1.02;0.80;;;20.50;71.20;;;;;;4984773;28;20266;-70
2024/02/14 02:52:10;;;;;;;1.27;1.02;;;20.40;70.90;;;;;;4987381;28;20208;-70
2024/02/14 02:54:43;;;;;;;2.10;1.10;;;20.40;71.00;;;;;;4992139;28;20215;-68
2024/02/14 02:57:11;;;;;;;1.15;0.90;;;20.40;71.10;;;;;;4999864;28;20286;-71
2024/02/14 02:59:42;;;;;;;1.55;1.05;;;20.30;71.00;;;;;;4968680;28;20207;-72
2024/02/14 03:02:18;;;;;;;1.20;1.00;;;20.10;70.60;;;;;;4985842;28;20200;-72
2024/02/14 03:04:45;;;;;;;1.50;1.20;;;20.30;71.10;;;;;;4979572;28;20207;-70
2024/02/14 03:07:19;;;;;;;1.63;0.90;;;20.70;71.70;;;;;;4987866;28;20204;-71
2024/02/14 03:09:53;;;;;;;1.17;0.80;;;20.30;71.10;;;;;;4984096;28;20196;-72
2024/02/14 03:12:22;;;;;;;1.95;1.17;;;20.10;70.90;;;;;;4997064;28;20329;-72
2024/02/14 03:14:51;;;;;;;1.10;0.90;;;20.30;71.10;;;;;;4996910;28;20655;-69
2024/02/14 03:17:22;;;;;;;1.35;1.13;;;20.30;71.20;;;;;;4981786;28;20200;-69
2024/02/14 03:19:51;;;;;;;2.20;1.15;;;20.30;71.30;;;;;;4979932;28;20197;-68
2024/02/14 03:22:23;;;;;;;2.85;0.90;;;20.10;71.00;;;;;;4980369;28;20200;-71
2024/02/14 03:24:51;;;;;;;1.50;0.90;;;20.30;70.90;;;;;;4989493;28;20219;-68
2024/02/14 03:27:23;;;;;;;1.60;0.93;;;20.70;71.50;;;;;;4997005;28;20898;-69
2024/02/14 03:29:55;;;;;;;1.10;0.90;;;20.30;71.00;;;;;;4985419;28;20196;-69
2024/02/14 03:32:28;;;;;;;1.08;0.85;;;20.30;71.20;;;;;;4989755;28;21871;-73
2024/02/14 03:34:55;;;;;;;1.20;0.90;;;20.20;71.00;;;;;;4997632;28;20796;-72
2024/02/14 03:37:22;;;;;;;1.73;1.10;;;20.30;71.20;;;;;;4993104;28;20207;-70
2024/02/14 03:39:52;;;;;;;1.20;0.98;;;20.10;71.10;;;;;;4995203;28;20200;-72
2024/02/14 03:42:19;;;;;;;2.00;0.88;;;20.10;71.10;;;;;;4994166;28;20947;-70
2024/02/14 03:44:48;;;;;;;1.10;0.90;;;20.20;71.20;;;;;;4996117;28;20759;-73
2024/02/14 03:47:16;;;;;;;1.48;1.10;;;20.10;71.00;;;;;;4986965;28;20377;-68
2024/02/14 03:49:45;;;;;;;1.65;1.10;;;20.20;71.00;;;;;;4992190;28;20199;-72
2024/02/14 03:52:14;;;;;;;1.10;0.90;;;20.20;71.20;;;;;;4996050;28;20199;-71
2024/02/14 03:54:44;;;;;;;2.00;1.10;;;20.20;71.90;;;;;;4991499;28;20679;-69
2024/02/14 03:57:17;;;;;;;1.50;1.10;;;20.60;71.50;;;;;;4994143;28;20204;-73
2024/02/14 03:59:47;;;;;;;1.63;0.93;;;20.20;71.10;;;;;;4992393;28;20587;-72
2024/02/14 04:02:18;;;;;;;1.75;1.10;;;20.70;71.60;;;;;;4998669;28;20196;-73
2024/02/14 04:04:47;;;;;;;1.10;0.80;;;20.30;71.60;;;;;;4990354;28;20829;-71
2024/02/14 04:07:18;;;;;;;1.00;0.80;;;20.20;71.20;;;;;;4988161;28;22550;-72
2024/02/14 04:09:44;;;;;;;1.27;1.10;;;20.20;72.00;;;;;;4993733;28;20200;-69
2024/02/14 04:12:15;;;;;;;1.20;0.90;;;20.30;71.40;;;;;;4984976;28;20196;-74
2024/02/14 04:14:48;;;;;;;1.73;1.00;;;20.20;71.20;;;;;;4983732;28;20220;-69
2024/02/14 04:17:15;;;;;;;1.52;1.08;;;20.20;71.30;;;;;;4984748;28;20327;-73
2024/02/14 04:19:43;;;;;;;1.17;0.80;;;20.30;71.80;;;;;;4983875;28;20204;-71
2024/02/14 04:22:18;;;;;;;1.35;1.05;;;20.10;71.20;;;;;;4992817;28;21171;-70
2024/02/14 04:24:47;;;;;;;1.10;0.90;;;20.10;71.00;;;;;;4988005;28;21351;-69
2024/02/14 04:27:15;;;;;;;1.40;0.90;;;20.10;71.10;;;;;;4992880;28;20203;-72
2024/02/14 04:29:46;;;;;;;1.48;0.90;;;20.00;71.00;;;;;;4995858;28;20678;-68
2024/02/14 04:32:14;;;;;;;1.05;0.80;;;20.20;71.30;;;;;;4985820;28;20208;-70
2024/02/14 04:34:42;;;;;;;1.30;1.00;;;20.20;71.20;;;;;;4991266;28;20233;-68
2024/02/14 04:37:18;;;;;;;1.48;0.90;;;19.90;71.00;;;;;;4997150;28;20795;-70
2024/02/14 04:39:46;;;;;;;1.52;0.88;;;20.10;71.10;;;;;;4993668;28;20200;-69
2024/02/14 04:42:12;;;;;;;1.55;1.00;;;19.90;71.00;;;;;;4990485;28;20201;-70
2024/02/14 04:44:43;;;;;;;1.00;0.80;;;19.90;71.00;;;;;;4994394;28;20208;-73
2024/02/14 04:47:14;;;;;;;1.42;1.00;;;20.30;71.40;;;;;;5003311;28;20247;-72
2024/02/14 04:49:44;;;;;;;1.42;1.00;;;19.90;71.00;;;;;;4994699;28;20195;-73
2024/02/14 04:52:17;;;;;;;1.10;0.75;;;20.00;71.00;;;;;;4999248;28;20203;-73
2024/02/14 04:54:49;;;;;;;4.80;1.38;;;19.70;70.60;;;;;;4994363;28;20952;-73
2024/02/14 04:57:18;;;;;;;2.75;1.00;;;20.10;71.20;;;;;;4997161;28;20204;-67
2024/02/14 04:59:47;;;;;;;1.65;1.00;;;19.90;70.90;;;;;;4999682;28;20212;-70
2024/02/14 05:02:14;;;;;;;1.00;0.80;;;20.10;71.00;;;;;;4999351;28;20195;-70
2024/02/14 05:04:41;;;;;;;1.25;0.70;;;20.10;71.90;;;;;;4986646;28;20204;-70
2024/02/14 05:07:11;;;;;;;1.48;1.05;;;20.00;71.00;;;;;;4994163;28;20206;-72
2024/02/14 05:09:40;;;;;;;1.00;0.80;;;20.50;71.80;;;;;;4988102;28;20195;-72
2024/02/14 05:12:13;;;;;;;1.30;0.90;;;20.40;71.40;;;;;;4989737;28;20195;-74
2024/02/14 05:14:44;;;;;;;1.20;0.90;;;19.90;71.00;;;;;;4992336;28;20715;-71
2024/02/14 05:17:15;;;;;;;1.33;0.93;;;20.00;71.00;;;;;;4997373;28;20643;-71
2024/02/14 05:19:43;;;;;;;1.10;0.77;;;20.50;71.70;;;;;;4993155;28;20203;-69
2024/02/14 05:22:09;;;;;;;1.25;0.93;;;20.10;71.30;;;;;;4994018;28;20205;-74
2024/02/14 05:24:37;;;;;;;1.40;0.88;;;20.00;71.10;;;;;;4989848;28;21980;-69
2024/02/14 05:27:05;;;;;;;1.10;0.90;;;20.10;71.20;;;;;;4991070;28;20898;-71
2024/02/14 05:29:33;;;;;;;1.55;0.80;;;20.10;71.20;;;;;;4992934;28;20243;-73
2024/02/14 05:32:03;;;;;;;1.10;0.90;;;20.10;71.10;;;;;;4992002;28;20200;-70
2024/02/14 05:34:31;;;;;;;1.52;0.80;;;20.10;71.20;;;;;;4981735;28;20221;-70
2024/02/14 05:37:07;;;;;;;1.13;0.90;;;20.20;71.40;;;;;;4996591;28;20201;-69
2024/02/14 05:39:36;;;;;;;1.10;0.82;;;20.00;71.00;;;;;;4999346;28;20246;-74
2024/02/14 05:42:04;;;;;;;1.10;0.80;;;20.00;71.10;;;;;;4995976;28;20199;-73
2024/02/14 05:44:33;;;;;;;1.50;0.90;;;20.00;71.10;;;;;;4994255;28;20518;-70
2024/02/14 05:47:05;;;;;;;1.20;1.00;;;20.10;71.30;;;;;;4980781;28;20465;-77
2024/02/14 05:49:37;;;;;;;2.00;0.95;;;20.00;71.20;;;;;;4989738;28;20224;-71
2024/02/14 05:52:04;;;;;;;1.33;1.00;;;20.00;71.50;;;;;;4994762;28;20200;-70
2024/02/14 05:54:34;;;;;;;2.10;1.35;;;20.00;71.50;;;;;;4992472;28;20216;-70
2024/02/14 05:57:01;;;;;;;1.75;0.82;;;20.40;72.30;;;;;;4997730;28;20501;-71
2024/02/14 05:59:30;;;;;;;1.58;0.93;;;20.10;72.00;;;;;;4986801;28;20217;-73
2024/02/14 06:01:58;;;;;;;1.25;0.70;;;19.90;72.00;;;;;;4990095;28;20196;-73
2024/02/14 06:04:25;;;;;;;1.00;0.90;;;20.10;72.40;;;;;;4990536;28;20208;-73
2024/02/14 06:06:53;;;;;;;1.00;0.80;;;20.10;72.50;;;;;;4981318;28;20219;-69
2024/02/14 06:09:20;;;;;;;1.10;0.82;;;20.10;73.10;;;;;;4986413;28;20237;-69
2024/02/14 06:11:50;;;;;;;1.45;1.13;;;20.10;72.40;;;;;;4987301;28;20192;-73
2024/02/14 06:14:16;;;;;;;1.35;0.93;;;20.10;72.40;;;;;;4990971;28;20222;-72
2024/02/14 06:16:43;;;;;;;1.30;0.80;;;20.20;72.80;;;;;;4984237;28;20200;-70
2024/02/14 06:19:12;;;;;;;1.38;1.10;;;20.00;72.40;;;;;;4996057;28;20207;-72
2024/02/14 06:21:41;;;;;;;1.10;0.90;;;20.20;72.80;;;;;;4993343;28;20200;-75
2024/02/14 06:24:13;;;;;;;1.20;0.88;;;20.00;73.40;;;;;;4992963;28;20215;-71
2024/02/14 06:26:42;;;;;;;1.73;0.88;;;20.20;72.90;;;;;;4997983;28;20196;-71
2024/02/14 06:29:13;;;;;;;1.52;1.00;;;20.70;73.40;;;;;;5001989;28;20683;-76
2024/02/14 06:31:42;;;;;;;1.20;0.70;;;20.10;72.70;;;;;;4990743;28;20515;-70
2024/02/14 06:34:08;;;;;;;1.10;0.80;;;20.20;72.90;;;;;;4991606;28;20688;-71
2024/02/14 06:36:37;;;;;;;1.02;0.77;;;20.40;73.10;;;;;;4996566;28;20206;-68
2024/02/14 06:39:05;;;;;;;1.33;0.82;;;20.40;73.10;;;;;;4993568;28;20196;-69
2024/02/14 06:41:41;;;;;;;1.42;0.90;;;20.40;73.10;;;;;;4983259;28;20680;-69
2024/02/14 06:44:08;;;;;;;1.25;0.98;;;20.60;73.30;;;;;;4995932;28;20204;-71
2024/02/14 06:46:38;;;;;;;1.27;0.90;;;20.50;73.20;;;;;;4993260;28;20424;-68
2024/02/14 06:49:05;;;;;;;1.40;0.90;;;20.80;73.50;;;;;;4999961;28;20196;-69
2024/02/14 06:51:33;;;;;;;0.90;0.70;;;20.40;73.10;;;;;;4989157;28;20199;-73
2024/02/14 06:53:59;;;;;;;0.90;0.70;;;21.00;73.80;;;;;;4999320;28;20199;-71
2024/02/14 06:56:32;;;;;;;1.58;0.90;;;20.40;73.20;;;;;;4994896;28;20211;-70
2024/02/14 06:59:05;;;;;;;1.20;0.82;;;20.50;73.10;;;;;;4991383;28;20822;-71
2024/02/14 07:01:33;;;;;;;1.30;0.88;;;20.70;73.50;;;;;;4995329;28;20232;-72
2024/02/14 07:04:01;;;;;;;1.00;0.70;;;20.60;73.30;;;;;;4998473;28;20774;-73
2024/02/14 07:06:30;;;;;;;1.50;1.33;;;20.60;73.40;;;;;;4994714;28;20239;-74
2024/02/14 07:08:57;;;;;;;1.00;0.70;;;20.60;73.20;;;;;;4999094;28;20215;-72
2024/02/14 07:11:28;;;;;;;1.40;0.60;;;20.60;73.40;;;;;;4991686;28;20220;-72
2024/02/14 07:14:04;;;;;;;1.00;0.82;;;20.60;73.10;;;;;;5000033;28;20203;-71
2024/02/14 07:16:33;;;;;;;1.20;0.95;;;20.60;73.40;;;;;;4994551;28;20683;-69
2024/02/14 07:19:00;;;;;;;1.10;0.70;;;20.10;72.70;;;;;;4993525;28;20201;-70
2024/02/14 07:21:28;;;;;;;1.02;0.90;;;20.30;72.90;;;;;;4991803;28;20215;-69
2024/02/14 07:23:55;;;;;;;1.30;0.88;;;20.60;73.10;;;;;;4999418;28;21058;-70
2024/02/14 07:26:25;;;;;;;1.20;0.80;;;20.60;73.20;;;;;;4993452;28;20205;-69
2024/02/14 07:28:53;;;;;;;0.95;0.68;;;20.60;73.10;;;;;;4998438;28;20205;-70
2024/02/14 07:31:20;;;;;;;0.90;0.70;;;20.60;73.10;;;;;;4987863;28;20201;-72
2024/02/14 07:33:53;;;;;;;1.30;0.70;;;20.80;73.50;;;;;;4991317;28;20891;-71
2024/02/14 07:36:22;;;;;;;0.90;0.70;;;20.70;73.50;;;;;;4994326;28;20454;-74
2024/02/14 07:38:52;;;;;;;0.90;0.70;;;20.60;74.00;;;;;;5001612;28;20216;-73
2024/02/14 07:41:29;;;;;;;1.10;0.90;;;20.70;73.60;;;;;;4998532;28;20238;-75
2024/02/14 07:43:57;;;;;;;1.13;0.90;;;20.70;73.30;;;;;;4997101;28;20307;-74
2024/02/14 07:46:31;;;;;;;1.00;0.70;;;20.80;73.40;;;;;;4989680;28;20200;-73
2024/02/14 07:48:59;;;;;;;1.20;0.80;;;20.80;73.30;;;;;;5001256;28;20200;-73
2024/02/14 07:51:36;;;;;;;1.20;1.07;;;20.80;73.30;;;;;;4998961;28;20196;-75
2024/02/14 07:54:03;;;;;;;1.13;0.95;;;20.80;73.30;;;;;;5000114;28;20465;-74
2024/02/14 07:56:31;;;;;;;1.30;0.70;;;20.80;73.20;;;;;;4998476;28;20282;-74
2024/02/14 07:59:05;;;;;;;1.00;0.90;;;20.90;73.10;;;;;;5002581;28;20200;-74
2024/02/14 08:01:32;;;;;;;1.05;0.77;;;20.90;72.90;;;;;;4989681;28;20204;-74
2024/02/14 08:04:00;;;;;;;1.00;0.80;;;20.90;72.90;;;;;;4996889;28;20881;-73
2024/02/14 08:06:29;;;;;;;1.10;0.90;;;20.90;72.80;;;;;;4997954;28;20326;-75
2024/02/14 08:09:01;;;;;;;1.10;0.85;;;20.90;72.80;;;;;;4992540;28;20297;-72
2024/02/14 08:11:29;;;;;;;1.00;0.77;;;20.90;72.60;;;;;;4994207;28;20195;-74
2024/02/14 08:13:57;;;;;;;1.10;0.70;;;20.90;72.60;;;;;;4996458;28;20211;-74
2024/02/14 08:16:24;;;;;;;1.00;0.70;;;20.90;72.50;;;;;;4993054;28;20224;-75
2024/02/14 08:18:58;;;;;;;1.00;0.60;;;20.90;72.40;;;;;;4989949;28;20968;-72
2024/02/14 08:21:30;;;;;;;1.15;0.75;;;20.90;72.30;;;;;;4998106;28;20216;-74
2024/02/14 08:23:58;;;;;;;1.08;0.70;;;20.90;72.30;;;;;;4991927;28;20219;-73
2024/02/14 08:26:25;;;;;;;1.10;0.95;;;20.90;72.30;;;;;;4994345;28;20554;-75
2024/02/14 08:28:56;;;;;;;0.90;0.60;;;20.90;72.30;;;;;;4992521;28;20202;-75
2024/02/14 08:31:22;;;;;;;1.00;0.70;;;20.90;72.10;;;;;;4992385;28;20872;-73
2024/02/14 08:33:50;;;;;;;2.00;1.02;;;20.90;72.30;;;;;;4995288;28;20205;-75
2024/02/14 08:36:18;;;;;;;1.00;0.77;;;21.00;72.20;;;;;;4997844;28;20224;-74
2024/02/14 08:38:46;;;;;;;2.08;0.60;;;21.00;72.20;;;;;;4988186;28;20204;-73
2024/02/14 08:41:14;;;;;;;0.90;0.68;;;20.90;72.10;;;;;;4999380;28;20664;-74
2024/02/14 08:43:40;;;;;;;1.00;0.80;;;21.40;72.60;;;;;;4994989;28;20203;-73
2024/02/14 08:46:12;;;;;;;1.00;0.73;;;20.80;71.90;;;;;;4994921;28;20206;-73
2024/02/14 08:48:41;;;;;;;0.98;0.65;;;20.90;72.00;;;;;;4993829;28;20199;-72
2024/02/14 08:51:09;;;;;;;1.73;0.80;;;20.90;72.20;;;;;;4988121;28;20223;-76
2024/02/14 08:53:35;;;;;;;1.15;0.90;;;20.90;72.10;;;;;;4990482;28;20459;-74
2024/02/14 08:56:06;;;;;;;1.03;0.80;;;20.90;72.80;;;;;;4995733;28;20231;-75
2024/02/14 08:58:35;;;;;;;1.10;0.68;;;20.90;72.00;;;;;;4983986;28;21007;-74
2024/02/14 09:01:01;;;;;;;1.10;0.80;;;20.90;72.00;;;;;;4987619;28;20201;-73
2024/02/14 09:03:30;;;;;;;1.08;0.77;;;20.90;71.80;;;;;;4987086;28;20843;-75
2024/02/14 09:06:04;;;;;;;1.00;0.70;;;20.80;71.70;;;;;;4986216;28;20212;-72
2024/02/14 09:08:31;;;;;;;1.20;0.80;;;20.90;71.80;;;;;;4987875;28;20254;-74
2024/02/14 09:10:59;;;;;;;1.00;0.80;;;20.70;71.70;;;;;;4982926;28;20331;-73
2024/02/14 09:13:28;;;;;;;1.10;0.75;;;20.90;71.80;;;;;;4988315;28;20998;-75
2024/02/14 09:15:56;;;;;;;1.02;0.70;;;20.90;72.00;;;;;;4987496;28;20406;-72
2024/02/14 09:18:25;;;;;;;1.20;0.80;;;20.80;71.80;;;;;;4982671;28;20299;-72
2024/02/14 09:20:56;;;;;;;0.90;0.70;;;20.70;71.70;;;;;;4992691;28;20337;-75
2024/02/14 09:23:25;;;;;;;0.90;0.80;;;20.80;71.70;;;;;;4994648;28;20208;-74
2024/02/14 09:25:52;;;;;;;0.90;0.70;;;20.70;71.60;;;;;;4996464;28;20204;-73
2024/02/14 09:28:19;;;;;;;0.93;0.70;;;21.10;72.20;;;;;;4994602;28;20239;-73
2024/02/14 09:30:50;;;;;;;5.10;0.88;;;20.80;72.60;;;;;;4993725;28;20684;-71
2024/02/14 09:33:20;;;;;;;1.52;0.80;;;20.80;72.00;;;;;;4991679;28;20204;-73
2024/02/14 09:35:47;;;;;;;1.08;0.88;;;20.90;72.30;;;;;;4980106;28;24412;-74
2024/02/14 09:38:18;;;;;;;1.30;1.10;;;20.50;72.00;;;;;;4993363;28;20192;-74
2024/02/14 09:40:45;;;;;;;1.95;0.90;;;20.90;73.10;;;;;;4999083;28;20198;-76
2024/02/14 09:43:23;;;;;;;1.23;0.85;;;21.20;74.00;;;;;;4997271;28;20222;-76
2024/02/14 09:45:52;;;;;;;2.55;1.60;;;21.00;73.70;;;;;;4994450;28;20219;-72
2024/02/14 09:48:24;;;;;;;0.90;0.70;;;20.90;74.00;;;;;;4992206;28;20650;-72
2024/02/14 09:50:56;;;;;;;1.42;0.68;;;20.80;73.90;;;;;;4996384;28;20255;-72
2024/02/14 09:53:31;;;;;;;2.65;0.88;;;21.00;74.30;;;;;;5002800;28;20200;-77
2024/02/14 09:55:58;;;;;;;1.08;0.80;;;21.40;74.80;;;;;;4994534;28;20227;-76
2024/02/14 09:58:27;;;;;;;1.00;0.80;;;21.00;74.20;;;;;;5001080;28;20205;-78
2024/02/14 10:00:56;;;;;;;1.40;0.80;;;20.90;74.10;;;;;;4998687;28;20661;-78
2024/02/14 10:03:28;;;;;;;1.10;0.80;;;21.00;74.30;;;;;;4999854;28;20484;-72
2024/02/14 10:05:55;;;;;;;2.72;1.00;;;20.90;74.20;;;;;;4994139;28;20223;-78
2024/02/14 10:08:26;;;;;;;2.35;1.05;;;20.80;74.10;;;;;;4979598;28;20802;-71
2024/02/14 10:10:53;;;;;;;0.90;0.70;;;21.00;74.40;;;;;;4978400;28;20227;-73
2024/02/14 10:13:20;;;;;;;1.42;0.95;;;21.00;74.50;;;;;;4984053;28;20278;-73
2024/02/14 10:15:48;;;;;;;2.05;0.80;;;21.30;75.30;;;;;;4982091;28;20239;-67
2024/02/14 10:18:17;;;;;;;1.10;0.85;;;21.30;75.50;;;;;;4989828;28;20683;-69
2024/02/14 10:20:58;;;;;;;1.27;0.80;;;20.90;75.50;;;;;;4993453;28;20613;-71
2024/02/14 10:23:27;;;;;;;4.22;0.75;;;21.30;75.60;;;;;;4989693;28;20863;-70
2024/02/14 10:25:58;;;;;;;1.35;0.90;;;21.20;75.60;;;;;;4989176;28;20212;-73
2024/02/14 10:28:25;;;;;;;0.95;0.70;;;21.00;75.50;;;;;;4987308;28;20215;-67
2024/02/14 10:30:59;;;;;;;0.90;0.70;;;20.90;75.30;;;;;;4972558;28;20870;-68
2024/02/14 10:33:32;;;;;;;1.73;0.70;;;21.30;75.60;;;;;;4972726;28;20783;-74
2024/02/14 10:36:03;;;;;;;1.55;1.17;;;21.10;76.20;;;;;;4989501;28;21247;-70
2024/02/14 10:38:40;;;;;;;1.30;0.90;;;21.10;75.60;;;;;;4997749;28;21928;-74
2024/02/14 10:41:09;;;;;;;1.40;0.80;;;21.10;75.20;;;;;;4999787;28;20458;-67
2024/02/14 10:43:41;;;;;;;1.20;0.90;;;21.00;75.20;;;;;;4997289;28;20661;-67
2024/02/14 10:46:14;;;;;;;1.03;0.67;;;21.00;75.10;;;;;;4998242;28;20204;-67
2024/02/14 10:48:44;;;;;;;0.98;0.80;;;21.30;76.00;;;;;;4995656;28;20464;-73
2024/02/14 10:51:16;;;;;;;1.53;0.80;;;21.00;75.10;;;;;;4993908;28;20214;-69
2024/02/14 10:53:47;;;;;;;1.13;0.70;;;21.20;75.30;;;;;;4993423;28;20823;-70
2024/02/14 10:56:19;;;;;;;1.20;0.80;;;21.30;75.10;;;;;;4997551;28;20703;-70
2024/02/14 10:58:56;;;;;;;0.90;0.70;;;21.10;74.90;;;;;;4988224;28;20461;-69
2024/02/14 11:01:24;;;;;;;1.20;0.60;;;21.30;75.00;;;;;;4991781;28;20475;-71
2024/02/14 11:04:00;;;;;;;1.00;0.67;;;21.60;75.40;;;;;;4994973;28;20462;-71
2024/02/14 11:06:29;;;;;;;1.20;0.90;;;21.50;75.30;;;;;;4983089;28;20922;-69
2024/02/14 11:09:06;;;;;;;1.00;0.80;;;21.30;74.90;;;;;;4997080;28;20465;-72
2024/02/14 11:11:36;;;;;;;1.88;0.80;;;21.20;74.70;;;;;;4990423;28;20297;-70
2024/02/14 11:14:03;;;;;;;1.07;0.60;;;21.30;74.80;;;;;;4990977;28;20196;-68
2024/02/14 11:16:33;;;;;;;1.30;0.73;;;21.20;75.00;;;;;;4991346;28;20472;-68
2024/02/14 11:19:17;;;;;;;1.00;0.73;;;21.10;74.70;;;;;;4984135;28;20198;-70
2024/02/14 11:21:48;;;;;;;1.37;0.60;;;21.30;74.90;;;;;;4992615;28;20550;-66
2024/02/14 11:24:16;;;;;;;1.03;0.70;;;21.30;74.90;;;;;;4992545;28;20461;-68
2024/02/14 11:26:51;;;;;;;1.13;0.80;;;21.30;75.00;;;;;;4992633;28;20474;-70
2024/02/14 11:29:19;;;;;;;1.73;0.80;;;21.40;75.00;;;;;;4976318;28;20469;-72
2024/02/14 11:31:50;;;;;;;1.37;0.70;;;21.60;75.30;;;;;;4993250;28;20462;-78
2024/02/14 11:34:19;;;;;;;1.10;0.70;;;21.40;75.10;;;;;;4998222;28;20509;-70
2024/02/14 11:36:46;;;;;;;1.50;1.03;;;21.40;75.10;;;;;;4998467;28;20518;-68
2024/02/14 11:39:14;;;;;;;0.90;0.60;;;21.40;75.10;;;;;;4996917;28;20955;-68
2024/02/14 11:41:43;;;;;;;0.90;0.70;;;21.40;75.10;;;;;;5001889;28;20462;-69
2024/02/14 11:44:11;;;;;;;2.13;0.83;;;21.40;74.80;;;;;;5003758;28;20463;-69
2024/02/14 11:46:41;;;;;;;1.48;0.82;;;21.50;75.20;;;;;;5002881;28;20513;-68
2024/02/14 11:49:16;;;;;;;1.93;0.80;;;21.50;75.00;;;;;;4990657;28;20196;-72
2024/02/14 11:51:44;;;;;;;0.90;0.70;;;21.50;75.00;;;;;;5000985;28;20469;-70
2024/02/14 11:54:11;;;;;;;1.00;0.70;;;21.50;75.00;;;;;;5001087;28;20469;-70
2024/02/14 11:56:41;;;;;;;0.93;0.70;;;21.50;75.00;;;;;;5003804;28;20483;-69
2024/02/14 11:59:11;;;;;;;1.93;0.93;;;21.60;75.00;;;;;;5003302;28;20962;-68
2024/02/14 12:01:39;;;;;;;1.10;0.80;;;21.50;74.90;;;;;;4995086;28;21461;-75
2024/02/14 12:04:09;;;;;;;0.90;0.60;;;21.50;75.00;;;;;;4993714;28;20554;-75
2024/02/14 12:06:41;;;;;;;1.00;0.70;;;21.30;74.70;;;;;;4999848;28;20450;-73
2024/02/14 12:09:10;;;;;;;1.00;0.80;;;21.30;74.70;;;;;;4998334;28;20471;-66
2024/02/14 12:11:42;;;;;;;2.13;1.00;;;21.50;74.90;;;;;;4994461;28;20467;-67
2024/02/14 12:14:11;;;;;;;1.77;0.97;;;21.30;73.70;;;;;;4992439;28;20506;-66
2024/02/14 12:16:41;;;;;;;1.50;1.20;;;21.30;73.10;;;;;;4991902;28;20679;-67
2024/02/14 12:19:22;;;;;;;2.13;1.20;;;21.30;73.10;;;;;;4990034;28;20486;-66
2024/02/14 12:21:49;;;;;;;1.20;1.00;;;21.20;72.80;;;;;;4982979;28;21077;-67
2024/02/14 12:24:20;;;;;;;1.97;1.40;;;21.30;73.00;;;;;;4991668;28;20467;-66
2024/02/14 12:26:48;;;;;;;1.50;1.10;;;20.90;72.40;;;;;;4995688;28;21005;-67
2024/02/14 12:29:19;;;;;;;3.40;1.30;;;20.80;72.40;;;;;;4989206;28;20467;-67
2024/02/14 12:31:50;;;;;;;1.60;1.30;;;20.90;72.70;;;;;;4997547;28;20574;-65
2024/02/14 12:34:18;;;;;;;1.70;1.10;;;20.90;72.70;;;;;;4986524;28;20465;-66
2024/02/14 12:36:47;;;;;;;2.13;1.40;;;20.80;72.70;;;;;;4996180;28;20532;-67
2024/02/14 12:39:20;;;;;;;2.30;1.45;;;20.80;72.80;;;;;;4993134;28;20463;-67
2024/02/14 12:41:51;;;;;;;2.20;1.42;;;20.80;73.30;;;;;;4994099;28;20192;-68
2024/02/14 12:44:18;;;;;;;1.50;1.10;;;20.70;73.90;;;;;;4996754;28;20274;-67
2024/02/14 12:46:46;;;;;;;3.35;1.05;;;20.90;74.20;;;;;;4998532;28;20459;-77
2024/02/14 12:49:13;;;;;;;1.85;1.17;;;20.90;73.90;;;;;;4990525;28;20193;-64
2024/02/14 12:51:40;;;;;;;1.30;0.90;;;20.90;74.20;;;;;;4996579;28;20661;-64
2024/02/14 12:54:11;;;;;;;1.27;0.90;;;21.20;74.80;;;;;;4996346;28;20209;-61
2024/02/14 12:56:43;;;;;;;1.40;0.95;;;21.60;75.30;;;;;;4994097;28;20250;-62
2024/02/14 12:59:15;;;;;;;1.73;1.05;;;21.30;75.20;;;;;;4994293;28;20204;-58